sensor_id;sensor_type;location;lat;lon;timestamp;P1;durP1;ratioP1;P2;durP2;ratioP2
13999;SDS011;7075;53.574;10.054;2023-03-14T00:02:20;7.40;;;2.23;;
13999;SDS011;7075;53.574;10.054;2023-03-14T00:04:47;4.27;;;2.80;;
13999;SDS011;7075;53.574;10.054;2023-03-14T00:07:13;6.00;;;2.67;;
13999;SDS011;7075;53.574;10.054;2023-03-14T00:09:39;6.40;;;2.70;;
13999;SDS011;7075;53.574;10.054;2023-03-14T00:12:04;8.50;;;2.37;;
13999;SDS011;7075;53.574;10.054;2023-03-14T00:14:32;4.07;;;2.43;;
13999;SDS011;7075;53.574;10.054;2023-03-14T00:16:59;5.87;;;2.73;;
13999;SDS011;7075;53.574;10.054;2023-03-14T00:19:25;7.73;;;2.23;;
13999;SDS011;7075;53.574;10.054;2023-03-14T00:21:50;4.83;;;2.47;;
13999;SDS011;7075;53.574;10.054;2023-03-14T00:24:16;7.33;;;2.33;;
13999;SDS011;7075;53.574;10.054;2023-03-14T00:26:41;8.20;;;2.57;;
13999;SDS011;7075;53.574;10.054;2023-03-14T00:29:07;7.37;;;2.37;;
13999;SDS011;7075;53.574;10.054;2023-03-14T00:31:32;3.30;;;1.93;;
13999;SDS011;7075;53.574;10.054;2023-03-14T00:34:01;8.53;;;2.57;;
13999;SDS011;7075;53.574;10.054;2023-03-14T00:36:26;9.70;;;2.87;;
13999;SDS011;7075;53.574;10.054;2023-03-14T00:38:52;12.47;;;3.03;;
13999;SDS011;7075;53.574;10.054;2023-03-14T00:41:19;5.43;;;2.80;;
13999;SDS011;7075;53.574;10.054;2023-03-14T00:43:49;7.57;;;2.40;;
13999;SDS011;7075;53.574;10.054;2023-03-14T00:46:17;5.13;;;2.47;;
13999;SDS011;7075;53.574;10.054;2023-03-14T00:48:43;6.27;;;2.33;;
13999;SDS011;7075;53.574;10.054;2023-03-14T00:51:11;6.23;;;2.40;;
13999;SDS011;7075;53.574;10.054;2023-03-14T00:53:41;6.27;;;2.20;;
13999;SDS011;7075;53.574;10.054;2023-03-14T00:56:08;9.90;;;2.87;;
13999;SDS011;7075;53.574;10.054;2023-03-14T00:58:36;10.00;;;2.53;;
13999;SDS011;7075;53.574;10.054;2023-03-14T01:01:10;7.00;;;2.70;;
13999;SDS011;7075;53.574;10.054;2023-03-14T01:03:40;8.00;;;2.47;;
13999;SDS011;7075;53.574;10.054;2023-03-14T01:06:16;6.97;;;2.90;;
13999;SDS011;7075;53.574;10.054;2023-03-14T01:08:44;13.07;;;3.00;;
13999;SDS011;7075;53.574;10.054;2023-03-14T01:11:11;8.10;;;3.17;;
13999;SDS011;7075;53.574;10.054;2023-03-14T01:13:39;6.50;;;2.17;;
13999;SDS011;7075;53.574;10.054;2023-03-14T01:16:07;8.17;;;2.37;;
13999;SDS011;7075;53.574;10.054;2023-03-14T01:18:34;12.87;;;2.90;;
13999;SDS011;7075;53.574;10.054;2023-03-14T01:21:03;6.73;;;2.37;;
13999;SDS011;7075;53.574;10.054;2023-03-14T01:23:36;5.07;;;2.13;;
13999;SDS011;7075;53.574;10.054;2023-03-14T01:26:02;8.10;;;2.70;;
13999;SDS011;7075;53.574;10.054;2023-03-14T01:28:28;7.53;;;2.43;;
13999;SDS011;7075;53.574;10.054;2023-03-14T01:30:54;9.83;;;3.07;;
13999;SDS011;7075;53.574;10.054;2023-03-14T01:33:21;10.67;;;3.27;;
13999;SDS011;7075;53.574;10.054;2023-03-14T01:35:49;7.03;;;2.80;;
13999;SDS011;7075;53.574;10.054;2023-03-14T01:38:14;8.17;;;2.50;;
13999;SDS011;7075;53.574;10.054;2023-03-14T01:40:45;9.90;;;2.47;;
13999;SDS011;7075;53.574;10.054;2023-03-14T01:43:17;10.20;;;3.23;;
13999;SDS011;7075;53.574;10.054;2023-03-14T01:48:20;6.13;;;2.20;;
13999;SDS011;7075;53.574;10.054;2023-03-14T01:50:47;9.57;;;2.70;;
13999;SDS011;7075;53.574;10.054;2023-03-14T01:53:13;6.30;;;2.53;;
13999;SDS011;7075;53.574;10.054;2023-03-14T01:55:39;10.67;;;3.40;;
13999;SDS011;7075;53.574;10.054;2023-03-14T01:58:07;8.17;;;2.43;;
13999;SDS011;7075;53.574;10.054;2023-03-14T02:00:34;8.17;;;3.87;;
13999;SDS011;7075;53.574;10.054;2023-03-14T02:03:05;5.17;;;2.80;;
13999;SDS011;7075;53.574;10.054;2023-03-14T02:05:40;6.80;;;3.03;;
13999;SDS011;7075;53.574;10.054;2023-03-14T02:08:08;4.30;;;2.43;;
13999;SDS011;7075;53.574;10.054;2023-03-14T02:10:41;6.37;;;3.00;;
13999;SDS011;7075;53.574;10.054;2023-03-14T02:13:09;8.20;;;3.40;;
13999;SDS011;7075;53.574;10.054;2023-03-14T02:15:36;7.10;;;2.97;;
13999;SDS011;7075;53.574;10.054;2023-03-14T02:18:03;6.50;;;2.63;;
13999;SDS011;7075;53.574;10.054;2023-03-14T02:20:36;5.43;;;2.80;;
13999;SDS011;7075;53.574;10.054;2023-03-14T02:23:09;7.67;;;2.33;;
13999;SDS011;7075;53.574;10.054;2023-03-14T02:28:19;4.60;;;2.50;;
13999;SDS011;7075;53.574;10.054;2023-03-14T02:30:45;10.80;;;3.07;;
13999;SDS011;7075;53.574;10.054;2023-03-14T02:33:19;6.90;;;2.50;;
13999;SDS011;7075;53.574;10.054;2023-03-14T02:35:51;5.30;;;2.40;;
13999;SDS011;7075;53.574;10.054;2023-03-14T02:38:34;11.77;;;3.13;;
13999;SDS011;7075;53.574;10.054;2023-03-14T02:41:09;7.30;;;2.10;;
13999;SDS011;7075;53.574;10.054;2023-03-14T02:43:35;5.13;;;2.47;;
13999;SDS011;7075;53.574;10.054;2023-03-14T02:46:03;7.70;;;2.83;;
13999;SDS011;7075;53.574;10.054;2023-03-14T02:51:02;8.40;;;2.83;;
13999;SDS011;7075;53.574;10.054;2023-03-14T02:53:30;5.57;;;2.57;;
13999;SDS011;7075;53.574;10.054;2023-03-14T02:55:57;7.43;;;3.17;;
13999;SDS011;7075;53.574;10.054;2023-03-14T02:58:25;5.20;;;2.90;;
13999;SDS011;7075;53.574;10.054;2023-03-14T03:00:51;5.87;;;2.80;;
13999;SDS011;7075;53.574;10.054;2023-03-14T03:03:18;8.23;;;2.87;;
13999;SDS011;7075;53.574;10.054;2023-03-14T03:05:47;9.50;;;2.83;;
13999;SDS011;7075;53.574;10.054;2023-03-14T03:08:15;9.07;;;3.03;;
13999;SDS011;7075;53.574;10.054;2023-03-14T03:10:41;5.13;;;2.70;;
13999;SDS011;7075;53.574;10.054;2023-03-14T03:13:06;9.93;;;2.90;;
13999;SDS011;7075;53.574;10.054;2023-03-14T03:15:33;5.87;;;2.70;;
13999;SDS011;7075;53.574;10.054;2023-03-14T03:17:59;9.50;;;2.63;;
13999;SDS011;7075;53.574;10.054;2023-03-14T03:20:26;7.90;;;2.80;;
13999;SDS011;7075;53.574;10.054;2023-03-14T03:22:53;8.90;;;2.73;;
13999;SDS011;7075;53.574;10.054;2023-03-14T03:25:18;4.53;;;2.40;;
13999;SDS011;7075;53.574;10.054;2023-03-14T03:27:44;6.53;;;2.70;;
13999;SDS011;7075;53.574;10.054;2023-03-14T03:30:09;10.13;;;2.60;;
13999;SDS011;7075;53.574;10.054;2023-03-14T03:32:35;6.27;;;2.77;;
13999;SDS011;7075;53.574;10.054;2023-03-14T03:35:02;5.63;;;3.10;;
13999;SDS011;7075;53.574;10.054;2023-03-14T03:37:30;7.80;;;2.73;;
13999;SDS011;7075;53.574;10.054;2023-03-14T03:39:56;9.03;;;3.10;;
13999;SDS011;7075;53.574;10.054;2023-03-14T03:42:23;6.40;;;2.63;;
13999;SDS011;7075;53.574;10.054;2023-03-14T03:44:56;6.50;;;3.17;;
13999;SDS011;7075;53.574;10.054;2023-03-14T03:47:22;7.60;;;2.60;;
13999;SDS011;7075;53.574;10.054;2023-03-14T03:49:48;6.60;;;3.00;;
13999;SDS011;7075;53.574;10.054;2023-03-14T03:52:14;8.73;;;2.87;;
13999;SDS011;7075;53.574;10.054;2023-03-14T03:54:39;6.77;;;2.57;;
13999;SDS011;7075;53.574;10.054;2023-03-14T03:57:05;10.03;;;2.83;;
13999;SDS011;7075;53.574;10.054;2023-03-14T03:59:31;8.47;;;3.10;;
13999;SDS011;7075;53.574;10.054;2023-03-14T04:01:56;9.50;;;2.70;;
13999;SDS011;7075;53.574;10.054;2023-03-14T04:04:22;6.80;;;2.30;;
13999;SDS011;7075;53.574;10.054;2023-03-14T04:06:47;5.90;;;3.47;;
13999;SDS011;7075;53.574;10.054;2023-03-14T04:09:13;11.10;;;3.03;;
13999;SDS011;7075;53.574;10.054;2023-03-14T04:11:39;5.07;;;2.47;;
13999;SDS011;7075;53.574;10.054;2023-03-14T04:14:04;5.70;;;2.80;;
13999;SDS011;7075;53.574;10.054;2023-03-14T04:16:31;8.00;;;2.60;;
13999;SDS011;7075;53.574;10.054;2023-03-14T04:18:58;6.40;;;2.80;;
13999;SDS011;7075;53.574;10.054;2023-03-14T04:21:24;5.27;;;2.77;;
13999;SDS011;7075;53.574;10.054;2023-03-14T04:23:49;9.27;;;3.23;;
13999;SDS011;7075;53.574;10.054;2023-03-14T04:26:15;10.37;;;3.87;;
13999;SDS011;7075;53.574;10.054;2023-03-14T04:28:42;10.30;;;3.13;;
13999;SDS011;7075;53.574;10.054;2023-03-14T04:31:09;8.00;;;3.10;;
13999;SDS011;7075;53.574;10.054;2023-03-14T04:33:37;7.53;;;3.03;;
13999;SDS011;7075;53.574;10.054;2023-03-14T04:36:03;11.70;;;2.90;;
13999;SDS011;7075;53.574;10.054;2023-03-14T04:38:32;7.07;;;3.23;;
13999;SDS011;7075;53.574;10.054;2023-03-14T04:40:58;5.60;;;2.47;;
13999;SDS011;7075;53.574;10.054;2023-03-14T04:43:26;8.53;;;3.17;;
13999;SDS011;7075;53.574;10.054;2023-03-14T04:45:56;10.23;;;3.20;;
13999;SDS011;7075;53.574;10.054;2023-03-14T04:48:23;7.50;;;3.20;;
13999;SDS011;7075;53.574;10.054;2023-03-14T04:51:07;14.43;;;3.10;;
13999;SDS011;7075;53.574;10.054;2023-03-14T04:53:34;8.47;;;3.77;;
13999;SDS011;7075;53.574;10.054;2023-03-14T04:56:01;5.27;;;3.13;;
13999;SDS011;7075;53.574;10.054;2023-03-14T04:58:27;8.97;;;2.73;;
13999;SDS011;7075;53.574;10.054;2023-03-14T05:00:53;5.67;;;2.90;;
13999;SDS011;7075;53.574;10.054;2023-03-14T05:03:19;7.40;;;3.00;;
13999;SDS011;7075;53.574;10.054;2023-03-14T05:05:46;7.87;;;3.47;;
13999;SDS011;7075;53.574;10.054;2023-03-14T05:08:12;7.50;;;3.40;;
13999;SDS011;7075;53.574;10.054;2023-03-14T05:10:38;7.43;;;3.70;;
13999;SDS011;7075;53.574;10.054;2023-03-14T05:13:05;5.57;;;3.50;;
13999;SDS011;7075;53.574;10.054;2023-03-14T05:15:31;9.73;;;2.93;;
13999;SDS011;7075;53.574;10.054;2023-03-14T05:17:57;6.43;;;2.67;;
13999;SDS011;7075;53.574;10.054;2023-03-14T05:20:27;7.37;;;2.63;;
13999;SDS011;7075;53.574;10.054;2023-03-14T05:22:53;6.30;;;2.67;;
13999;SDS011;7075;53.574;10.054;2023-03-14T05:25:18;6.47;;;3.20;;
13999;SDS011;7075;53.574;10.054;2023-03-14T05:27:44;3.43;;;2.40;;
13999;SDS011;7075;53.574;10.054;2023-03-14T05:30:09;4.13;;;2.53;;
13999;SDS011;7075;53.574;10.054;2023-03-14T05:32:35;6.27;;;2.70;;
13999;SDS011;7075;53.574;10.054;2023-03-14T05:35:01;5.23;;;2.53;;
13999;SDS011;7075;53.574;10.054;2023-03-14T05:37:28;5.17;;;2.30;;
13999;SDS011;7075;53.574;10.054;2023-03-14T05:39:55;5.20;;;2.80;;
13999;SDS011;7075;53.574;10.054;2023-03-14T05:42:20;3.43;;;2.30;;
13999;SDS011;7075;53.574;10.054;2023-03-14T05:44:46;7.17;;;2.67;;
13999;SDS011;7075;53.574;10.054;2023-03-14T05:47:13;8.20;;;3.00;;
13999;SDS011;7075;53.574;10.054;2023-03-14T05:49:38;5.53;;;3.23;;
13999;SDS011;7075;53.574;10.054;2023-03-14T05:52:04;9.30;;;3.20;;
13999;SDS011;7075;53.574;10.054;2023-03-14T05:54:31;7.80;;;3.43;;
13999;SDS011;7075;53.574;10.054;2023-03-14T05:56:56;11.07;;;3.97;;
13999;SDS011;7075;53.574;10.054;2023-03-14T05:59:23;8.63;;;4.03;;
13999;SDS011;7075;53.574;10.054;2023-03-14T06:01:48;4.80;;;3.70;;
13999;SDS011;7075;53.574;10.054;2023-03-14T06:04:14;7.33;;;4.00;;
13999;SDS011;7075;53.574;10.054;2023-03-14T06:06:41;7.87;;;3.73;;
13999;SDS011;7075;53.574;10.054;2023-03-14T06:09:06;11.80;;;4.70;;
13999;SDS011;7075;53.574;10.054;2023-03-14T06:11:32;11.30;;;3.83;;
13999;SDS011;7075;53.574;10.054;2023-03-14T06:13:57;9.90;;;3.93;;
13999;SDS011;7075;53.574;10.054;2023-03-14T06:16:24;7.10;;;4.00;;
13999;SDS011;7075;53.574;10.054;2023-03-14T06:18:49;5.93;;;3.90;;
13999;SDS011;7075;53.574;10.054;2023-03-14T06:21:15;7.93;;;3.33;;
13999;SDS011;7075;53.574;10.054;2023-03-14T06:23:42;7.27;;;3.03;;
13999;SDS011;7075;53.574;10.054;2023-03-14T06:26:07;9.77;;;3.43;;
13999;SDS011;7075;53.574;10.054;2023-03-14T06:28:33;7.07;;;3.40;;
13999;SDS011;7075;53.574;10.054;2023-03-14T06:31:00;4.40;;;2.87;;
13999;SDS011;7075;53.574;10.054;2023-03-14T06:33:25;8.00;;;3.57;;
13999;SDS011;7075;53.574;10.054;2023-03-14T06:35:51;7.30;;;3.73;;
13999;SDS011;7075;53.574;10.054;2023-03-14T06:38:16;9.47;;;4.03;;
13999;SDS011;7075;53.574;10.054;2023-03-14T06:40:42;6.70;;;3.00;;
13999;SDS011;7075;53.574;10.054;2023-03-14T06:43:07;6.93;;;3.10;;
13999;SDS011;7075;53.574;10.054;2023-03-14T06:45:33;6.17;;;2.93;;
13999;SDS011;7075;53.574;10.054;2023-03-14T06:47:58;10.67;;;3.60;;
13999;SDS011;7075;53.574;10.054;2023-03-14T06:50:24;4.73;;;2.63;;
13999;SDS011;7075;53.574;10.054;2023-03-14T06:52:50;5.10;;;2.50;;
13999;SDS011;7075;53.574;10.054;2023-03-14T06:55:15;6.17;;;3.10;;
13999;SDS011;7075;53.574;10.054;2023-03-14T06:57:41;6.83;;;2.57;;
13999;SDS011;7075;53.574;10.054;2023-03-14T07:00:09;10.53;;;3.00;;
13999;SDS011;7075;53.574;10.054;2023-03-14T07:02:36;7.23;;;2.20;;
13999;SDS011;7075;53.574;10.054;2023-03-14T07:05:01;7.27;;;2.90;;
13999;SDS011;7075;53.574;10.054;2023-03-14T07:07:28;7.43;;;2.60;;
13999;SDS011;7075;53.574;10.054;2023-03-14T07:09:54;6.40;;;2.40;;
13999;SDS011;7075;53.574;10.054;2023-03-14T07:12:20;4.80;;;2.00;;
13999;SDS011;7075;53.574;10.054;2023-03-14T07:14:47;5.70;;;2.10;;
13999;SDS011;7075;53.574;10.054;2023-03-14T07:17:13;9.43;;;2.37;;
13999;SDS011;7075;53.574;10.054;2023-03-14T07:19:39;7.17;;;2.53;;
13999;SDS011;7075;53.574;10.054;2023-03-14T07:22:07;8.40;;;2.53;;
13999;SDS011;7075;53.574;10.054;2023-03-14T07:24:32;5.57;;;2.30;;
13999;SDS011;7075;53.574;10.054;2023-03-14T07:26:58;4.40;;;2.53;;
13999;SDS011;7075;53.574;10.054;2023-03-14T07:29:24;5.97;;;1.77;;
13999;SDS011;7075;53.574;10.054;2023-03-14T07:31:51;6.90;;;2.07;;
13999;SDS011;7075;53.574;10.054;2023-03-14T07:34:17;15.20;;;2.93;;
13999;SDS011;7075;53.574;10.054;2023-03-14T07:36:42;6.40;;;2.60;;
13999;SDS011;7075;53.574;10.054;2023-03-14T07:39:08;4.40;;;1.87;;
13999;SDS011;7075;53.574;10.054;2023-03-14T07:41:34;5.83;;;2.10;;
13999;SDS011;7075;53.574;10.054;2023-03-14T07:44:00;6.43;;;2.30;;
13999;SDS011;7075;53.574;10.054;2023-03-14T07:46:25;8.03;;;2.63;;
13999;SDS011;7075;53.574;10.054;2023-03-14T07:48:52;4.53;;;1.87;;
13999;SDS011;7075;53.574;10.054;2023-03-14T07:51:17;5.20;;;1.77;;
13999;SDS011;7075;53.574;10.054;2023-03-14T07:53:43;12.20;;;2.60;;
13999;SDS011;7075;53.574;10.054;2023-03-14T07:56:09;3.80;;;1.33;;
13999;SDS011;7075;53.574;10.054;2023-03-14T07:58:35;6.30;;;1.57;;
13999;SDS011;7075;53.574;10.054;2023-03-14T08:01:01;7.80;;;1.93;;
13999;SDS011;7075;53.574;10.054;2023-03-14T08:03:28;2.67;;;1.50;;
13999;SDS011;7075;53.574;10.054;2023-03-14T08:05:55;3.27;;;1.60;;
13999;SDS011;7075;53.574;10.054;2023-03-14T08:08:20;6.00;;;1.20;;
13999;SDS011;7075;53.574;10.054;2023-03-14T08:10:46;4.03;;;1.33;;
13999;SDS011;7075;53.574;10.054;2023-03-14T08:13:11;5.03;;;1.30;;
13999;SDS011;7075;53.574;10.054;2023-03-14T08:15:37;3.13;;;1.40;;
13999;SDS011;7075;53.574;10.054;2023-03-14T08:18:02;5.40;;;1.53;;
13999;SDS011;7075;53.574;10.054;2023-03-14T08:20:30;7.93;;;2.07;;
13999;SDS011;7075;53.574;10.054;2023-03-14T08:22:56;5.00;;;1.77;;
13999;SDS011;7075;53.574;10.054;2023-03-14T08:25:22;4.03;;;1.57;;
13999;SDS011;7075;53.574;10.054;2023-03-14T08:27:48;4.03;;;1.80;;
13999;SDS011;7075;53.574;10.054;2023-03-14T08:30:14;2.97;;;1.70;;
13999;SDS011;7075;53.574;10.054;2023-03-14T08:32:41;5.63;;;1.70;;
13999;SDS011;7075;53.574;10.054;2023-03-14T08:35:08;4.10;;;2.00;;
13999;SDS011;7075;53.574;10.054;2023-03-14T08:37:35;5.60;;;1.80;;
13999;SDS011;7075;53.574;10.054;2023-03-14T08:40:03;4.33;;;1.67;;
13999;SDS011;7075;53.574;10.054;2023-03-14T08:42:38;5.77;;;2.13;;
13999;SDS011;7075;53.574;10.054;2023-03-14T08:45:05;5.30;;;2.27;;
13999;SDS011;7075;53.574;10.054;2023-03-14T08:47:31;7.97;;;2.23;;
13999;SDS011;7075;53.574;10.054;2023-03-14T08:49:57;8.80;;;2.33;;
13999;SDS011;7075;53.574;10.054;2023-03-14T08:52:23;5.23;;;2.23;;
13999;SDS011;7075;53.574;10.054;2023-03-14T08:54:48;9.87;;;3.23;;
13999;SDS011;7075;53.574;10.054;2023-03-14T08:57:14;8.53;;;2.87;;
13999;SDS011;7075;53.574;10.054;2023-03-14T08:59:40;7.40;;;2.47;;
13999;SDS011;7075;53.574;10.054;2023-03-14T09:02:05;5.80;;;2.70;;
13999;SDS011;7075;53.574;10.054;2023-03-14T09:04:33;7.37;;;2.83;;
13999;SDS011;7075;53.574;10.054;2023-03-14T09:06:59;8.50;;;2.80;;
13999;SDS011;7075;53.574;10.054;2023-03-14T09:09:25;9.20;;;3.47;;
13999;SDS011;7075;53.574;10.054;2023-03-14T09:11:55;7.00;;;3.00;;
13999;SDS011;7075;53.574;10.054;2023-03-14T09:14:21;7.77;;;3.10;;
13999;SDS011;7075;53.574;10.054;2023-03-14T09:16:47;10.07;;;3.10;;
13999;SDS011;7075;53.574;10.054;2023-03-14T09:19:13;7.40;;;3.63;;
13999;SDS011;7075;53.574;10.054;2023-03-14T09:21:38;6.37;;;3.20;;
13999;SDS011;7075;53.574;10.054;2023-03-14T09:24:04;11.07;;;3.73;;
13999;SDS011;7075;53.574;10.054;2023-03-14T09:26:33;6.13;;;3.43;;
13999;SDS011;7075;53.574;10.054;2023-03-14T09:28:58;5.47;;;2.83;;
13999;SDS011;7075;53.574;10.054;2023-03-14T09:31:24;7.83;;;3.50;;
13999;SDS011;7075;53.574;10.054;2023-03-14T09:33:51;12.23;;;3.83;;
13999;SDS011;7075;53.574;10.054;2023-03-14T09:36:16;6.57;;;4.00;;
13999;SDS011;7075;53.574;10.054;2023-03-14T09:38:42;4.60;;;3.37;;
13999;SDS011;7075;53.574;10.054;2023-03-14T09:41:27;8.40;;;4.33;;
13999;SDS011;7075;53.574;10.054;2023-03-14T09:44:00;9.87;;;3.63;;
13999;SDS011;7075;53.574;10.054;2023-03-14T09:46:50;8.00;;;3.80;;
13999;SDS011;7075;53.574;10.054;2023-03-14T09:49:25;8.47;;;4.07;;
13999;SDS011;7075;53.574;10.054;2023-03-14T09:51:58;11.87;;;4.57;;
13999;SDS011;7075;53.574;10.054;2023-03-14T09:54:31;10.87;;;4.30;;
13999;SDS011;7075;53.574;10.054;2023-03-14T09:57:02;7.13;;;3.80;;
13999;SDS011;7075;53.574;10.054;2023-03-14T09:59:29;7.30;;;3.93;;
13999;SDS011;7075;53.574;10.054;2023-03-14T10:02:00;6.50;;;2.87;;
13999;SDS011;7075;53.574;10.054;2023-03-14T10:04:26;2.50;;;1.30;;
13999;SDS011;7075;53.574;10.054;2023-03-14T10:06:56;2.50;;;1.33;;
13999;SDS011;7075;53.574;10.054;2023-03-14T10:09:22;1.70;;;0.97;;
13999;SDS011;7075;53.574;10.054;2023-03-14T10:11:52;1.30;;;0.60;;
13999;SDS011;7075;53.574;10.054;2023-03-14T10:14:33;1.10;;;0.67;;
13999;SDS011;7075;53.574;10.054;2023-03-14T10:17:04;1.50;;;1.13;;
13999;SDS011;7075;53.574;10.054;2023-03-14T10:19:35;2.17;;;0.87;;
13999;SDS011;7075;53.574;10.054;2023-03-14T10:22:02;2.50;;;1.00;;
13999;SDS011;7075;53.574;10.054;2023-03-14T10:24:33;2.53;;;1.00;;
13999;SDS011;7075;53.574;10.054;2023-03-14T10:27:01;3.13;;;0.80;;
13999;SDS011;7075;53.574;10.054;2023-03-14T10:29:29;2.43;;;0.60;;
13999;SDS011;7075;53.574;10.054;2023-03-14T10:32:00;0.67;;;0.50;;
13999;SDS011;7075;53.574;10.054;2023-03-14T10:34:29;2.20;;;0.60;;
13999;SDS011;7075;53.574;10.054;2023-03-14T10:37:22;1.87;;;0.77;;
13999;SDS011;7075;53.574;10.054;2023-03-14T10:39:55;1.60;;;0.60;;
13999;SDS011;7075;53.574;10.054;2023-03-14T10:42:30;2.63;;;0.57;;
13999;SDS011;7075;53.574;10.054;2023-03-14T10:44:59;0.77;;;0.60;;
13999;SDS011;7075;53.574;10.054;2023-03-14T10:47:28;1.10;;;0.40;;
13999;SDS011;7075;53.574;10.054;2023-03-14T10:49:54;1.30;;;0.50;;
13999;SDS011;7075;53.574;10.054;2023-03-14T10:52:25;0.80;;;0.60;;
13999;SDS011;7075;53.574;10.054;2023-03-14T10:54:58;1.33;;;0.70;;
13999;SDS011;7075;53.574;10.054;2023-03-14T10:57:27;1.10;;;0.60;;
13999;SDS011;7075;53.574;10.054;2023-03-14T10:59:55;0.83;;;0.70;;
13999;SDS011;7075;53.574;10.054;2023-03-14T11:02:28;0.83;;;0.77;;
13999;SDS011;7075;53.574;10.054;2023-03-14T11:07:43;3.77;;;0.40;;
13999;SDS011;7075;53.574;10.054;2023-03-14T11:16:02;1.10;;;0.40;;
13999;SDS011;7075;53.574;10.054;2023-03-14T11:21:57;0.60;;;0.40;;
13999;SDS011;7075;53.574;10.054;2023-03-14T11:24:55;2.27;;;0.70;;
13999;SDS011;7075;53.574;10.054;2023-03-14T11:30:19;3.10;;;1.00;;
13999;SDS011;7075;53.574;10.054;2023-03-14T11:33:04;2.17;;;1.00;;
13999;SDS011;7075;53.574;10.054;2023-03-14T11:35:45;3.13;;;0.73;;
13999;SDS011;7075;53.574;10.054;2023-03-14T11:40:50;2.03;;;0.63;;
13999;SDS011;7075;53.574;10.054;2023-03-14T11:45:51;0.97;;;0.57;;
13999;SDS011;7075;53.574;10.054;2023-03-14T11:48:40;1.80;;;0.50;;
13999;SDS011;7075;53.574;10.054;2023-03-14T11:51:21;2.17;;;0.77;;
13999;SDS011;7075;53.574;10.054;2023-03-14T11:53:55;1.70;;;0.50;;
13999;SDS011;7075;53.574;10.054;2023-03-14T11:56:45;2.03;;;0.70;;
13999;SDS011;7075;53.574;10.054;2023-03-14T11:59:25;2.50;;;0.90;;
13999;SDS011;7075;53.574;10.054;2023-03-14T12:10:43;3.63;;;1.20;;
13999;SDS011;7075;53.574;10.054;2023-03-14T12:13:13;3.07;;;0.77;;
13999;SDS011;7075;53.574;10.054;2023-03-14T12:15:41;6.13;;;1.30;;
13999;SDS011;7075;53.574;10.054;2023-03-14T12:18:37;3.23;;;1.23;;
13999;SDS011;7075;53.574;10.054;2023-03-14T12:21:08;6.13;;;1.20;;
13999;SDS011;7075;53.574;10.054;2023-03-14T12:28:33;8.13;;;1.50;;
13999;SDS011;7075;53.574;10.054;2023-03-14T12:50:34;14.63;;;1.63;;
13999;SDS011;7075;53.574;10.054;2023-03-14T12:53:38;9.03;;;1.93;;
13999;SDS011;7075;53.574;10.054;2023-03-14T12:56:22;5.27;;;1.23;;
13999;SDS011;7075;53.574;10.054;2023-03-14T12:58:57;8.97;;;1.70;;
13999;SDS011;7075;53.574;10.054;2023-03-14T13:01:30;6.87;;;1.53;;
13999;SDS011;7075;53.574;10.054;2023-03-14T13:04:02;8.10;;;2.70;;
13999;SDS011;7075;53.574;10.054;2023-03-14T13:06:50;10.77;;;2.30;;
13999;SDS011;7075;53.574;10.054;2023-03-14T13:12:34;4.93;;;1.50;;
13999;SDS011;7075;53.574;10.054;2023-03-14T13:14:52;7.57;;;1.90;;
13999;SDS011;7075;53.574;10.054;2023-03-14T13:17:22;8.87;;;2.33;;
13999;SDS011;7075;53.574;10.054;2023-03-14T13:19:57;7.43;;;2.10;;
13999;SDS011;7075;53.574;10.054;2023-03-14T13:22:31;10.93;;;2.07;;
13999;SDS011;7075;53.574;10.054;2023-03-14T13:25:03;14.10;;;2.13;;
13999;SDS011;7075;53.574;10.054;2023-03-14T13:27:33;13.70;;;1.97;;
13999;SDS011;7075;53.574;10.054;2023-03-14T13:32:42;6.03;;;2.07;;
13999;SDS011;7075;53.574;10.054;2023-03-14T13:35:19;11.57;;;2.57;;
13999;SDS011;7075;53.574;10.054;2023-03-14T13:37:54;11.60;;;2.57;;
13999;SDS011;7075;53.574;10.054;2023-03-14T13:40:29;7.87;;;1.60;;
13999;SDS011;7075;53.574;10.054;2023-03-14T13:43:01;8.93;;;2.17;;
13999;SDS011;7075;53.574;10.054;2023-03-14T13:45:41;8.53;;;2.10;;
13999;SDS011;7075;53.574;10.054;2023-03-14T13:48:11;10.60;;;1.70;;
13999;SDS011;7075;53.574;10.054;2023-03-14T13:50:44;4.47;;;2.27;;
13999;SDS011;7075;53.574;10.054;2023-03-14T13:53:11;9.30;;;1.60;;
13999;SDS011;7075;53.574;10.054;2023-03-14T13:55:37;2.90;;;0.93;;
13999;SDS011;7075;53.574;10.054;2023-03-14T13:58:03;5.73;;;1.53;;
13999;SDS011;7075;53.574;10.054;2023-03-14T14:00:29;7.50;;;1.60;;
13999;SDS011;7075;53.574;10.054;2023-03-14T14:02:56;10.43;;;2.20;;
13999;SDS011;7075;53.574;10.054;2023-03-14T14:05:25;6.90;;;1.93;;
13999;SDS011;7075;53.574;10.054;2023-03-14T14:07:52;7.50;;;2.20;;
13999;SDS011;7075;53.574;10.054;2023-03-14T14:10:20;5.03;;;1.67;;
13999;SDS011;7075;53.574;10.054;2023-03-14T14:12:47;8.23;;;2.07;;
13999;SDS011;7075;53.574;10.054;2023-03-14T14:15:21;9.40;;;1.80;;
13999;SDS011;7075;53.574;10.054;2023-03-14T14:17:53;7.67;;;1.70;;
13999;SDS011;7075;53.574;10.054;2023-03-14T14:20:32;8.77;;;1.90;;
13999;SDS011;7075;53.574;10.054;2023-03-14T14:23:01;6.67;;;1.57;;
13999;SDS011;7075;53.574;10.054;2023-03-14T14:25:32;5.33;;;1.33;;
13999;SDS011;7075;53.574;10.054;2023-03-14T14:27:58;11.33;;;1.63;;
13999;SDS011;7075;53.574;10.054;2023-03-14T14:30:38;6.30;;;1.90;;
13999;SDS011;7075;53.574;10.054;2023-03-14T14:33:21;8.57;;;2.27;;
13999;SDS011;7075;53.574;10.054;2023-03-14T14:35:51;6.60;;;1.80;;
13999;SDS011;7075;53.574;10.054;2023-03-14T14:38:25;5.20;;;1.60;;
13999;SDS011;7075;53.574;10.054;2023-03-14T14:40:52;4.93;;;1.27;;
13999;SDS011;7075;53.574;10.054;2023-03-14T14:43:28;12.63;;;1.90;;
13999;SDS011;7075;53.574;10.054;2023-03-14T14:46:00;11.17;;;1.90;;
13999;SDS011;7075;53.574;10.054;2023-03-14T14:48:26;6.97;;;1.70;;
13999;SDS011;7075;53.574;10.054;2023-03-14T14:51:00;5.10;;;1.43;;
13999;SDS011;7075;53.574;10.054;2023-03-14T14:53:29;7.57;;;1.77;;
13999;SDS011;7075;53.574;10.054;2023-03-14T14:56:06;7.67;;;1.50;;
13999;SDS011;7075;53.574;10.054;2023-03-14T14:58:43;5.97;;;1.20;;
13999;SDS011;7075;53.574;10.054;2023-03-14T15:03:45;6.30;;;1.50;;
13999;SDS011;7075;53.574;10.054;2023-03-14T15:06:13;7.83;;;1.23;;
13999;SDS011;7075;53.574;10.054;2023-03-14T15:08:40;5.03;;;1.37;;
13999;SDS011;7075;53.574;10.054;2023-03-14T15:11:09;8.27;;;2.10;;
13999;SDS011;7075;53.574;10.054;2023-03-14T15:13:42;5.37;;;1.27;;
13999;SDS011;7075;53.574;10.054;2023-03-14T15:16:11;8.70;;;1.57;;
13999;SDS011;7075;53.574;10.054;2023-03-14T15:18:38;7.10;;;1.77;;
13999;SDS011;7075;53.574;10.054;2023-03-14T15:21:04;3.20;;;1.27;;
13999;SDS011;7075;53.574;10.054;2023-03-14T15:23:30;6.93;;;1.33;;
13999;SDS011;7075;53.574;10.054;2023-03-14T15:25:56;5.23;;;1.53;;
13999;SDS011;7075;53.574;10.054;2023-03-14T15:28:23;6.70;;;1.70;;
13999;SDS011;7075;53.574;10.054;2023-03-14T15:30:51;6.80;;;1.90;;
13999;SDS011;7075;53.574;10.054;2023-03-14T15:33:22;12.07;;;2.60;;
13999;SDS011;7075;53.574;10.054;2023-03-14T15:35:49;8.33;;;2.30;;
13999;SDS011;7075;53.574;10.054;2023-03-14T15:38:17;15.77;;;1.63;;
13999;SDS011;7075;53.574;10.054;2023-03-14T15:40:47;8.27;;;2.17;;
13999;SDS011;7075;53.574;10.054;2023-03-14T15:43:13;8.83;;;2.50;;
13999;SDS011;7075;53.574;10.054;2023-03-14T15:45:38;6.97;;;1.77;;
13999;SDS011;7075;53.574;10.054;2023-03-14T15:48:08;6.17;;;2.07;;
13999;SDS011;7075;53.574;10.054;2023-03-14T15:50:42;11.10;;;2.17;;
13999;SDS011;7075;53.574;10.054;2023-03-14T15:53:08;13.37;;;2.00;;
13999;SDS011;7075;53.574;10.054;2023-03-14T15:55:34;23.03;;;2.77;;
13999;SDS011;7075;53.574;10.054;2023-03-14T15:57:59;8.10;;;1.83;;
13999;SDS011;7075;53.574;10.054;2023-03-14T16:00:27;4.97;;;1.80;;
13999;SDS011;7075;53.574;10.054;2023-03-14T16:02:54;9.40;;;1.90;;
13999;SDS011;7075;53.574;10.054;2023-03-14T16:05:20;7.13;;;1.93;;